Aurora, Kentucky
Current Conditions -  °F | °C
As of 5:55 AM on Sunday 23 Nov 2014 (Local Time) from KCEY Reporting Station
Overcast Overcast  
Wind Chill: 55°   Ceiling: 2200
Heat Index: 55°   Visibility: 10mi
Dew Point: 46°   Wind: 13mph
Humidity: 72%   Direction: 130°SE
Pressure: 29.84"   Gusts: 17mph
Location:  36.7761°N, 88.2528°W
Report Text: KCEY 231155Z AUTO 13011G15KT 10SM OVC022 13/08 A2984 RMK AO1
Loading
Personal Weather Stations






























Interactive Weather Map New forecast layout! Learn more

10-Day Weather Forecast

Advertisements
Track Severe Weather on mobile